Time;durP1;ratioP1;P1;durP2;ratioP2;P2;SDS_P1;SDS_P2;PMS_P1;PMS_P2;Temp;Humidity;BMP_temperature;BMP_pressure;BME280_temperature;BME280_humidity;BME280_pressure;Samples;Min_cycle;Max_cycle;Signal;HPM_P1;HPM_P2
2022/12/18 00:01:28;;;;;;;111.50;39.45;;;;;;;;;;5094835;28;20039;-42
2022/12/18 00:03:55;;;;;;;104.78;37.70;;;;;;;;;;5095862;27;20142;-43
2022/12/18 00:06:21;;;;;;;109.05;37.05;;;;;;;;;;5094707;27;20081;-42
2022/12/18 00:08:47;;;;;;;114.20;38.17;;;;;;;;;;5094797;27;20044;-43
2022/12/18 00:11:18;;;;;;;117.43;41.40;;;;;;;;;;5094691;27;20040;-45
2022/12/18 00:13:44;;;;;;;113.25;41.08;;;;;;;;;;5093088;27;20035;-43
2022/12/18 00:16:12;;;;;;;122.70;42.22;;;;;;;;;;5093932;27;20337;-42
2022/12/18 00:18:38;;;;;;;116.57;41.33;;;;;;;;;;5094694;27;20158;-44
2022/12/18 00:21:06;;;;;;;101.22;36.40;;;;;;;;;;5093789;27;20129;-44
2022/12/18 00:23:32;;;;;;;117.65;39.22;;;;;;;;;;5093724;27;20059;-42
2022/12/18 00:26:02;;;;;;;101.60;36.92;;;;;;;;;;5094417;27;21109;-43
2022/12/18 00:28:28;;;;;;;99.32;37.67;;;;;;;;;;5093607;27;20071;-44
2022/12/18 00:31:04;;;;;;;103.57;34.78;;;;;;;;;;5093833;27;21240;-42
2022/12/18 00:33:30;;;;;;;91.78;33.92;;;;;;;;;;5093179;28;20503;-42
2022/12/18 00:36:01;;;;;;;94.15;36.03;;;;;;;;;;5095035;27;20514;-43
2022/12/18 00:38:27;;;;;;;96.70;36.70;;;;;;;;;;5094650;27;20080;-45
2022/12/18 00:40:53;;;;;;;80.40;30.48;;;;;;;;;;5094938;27;20122;-45
2022/12/18 00:43:19;;;;;;;113.95;36.67;;;;;;;;;;5093384;27;20042;-43
2022/12/18 00:45:45;;;;;;;90.22;34.10;;;;;;;;;;5094009;28;20284;-45
2022/12/18 00:48:11;;;;;;;101.80;35.97;;;;;;;;;;5093886;28;20119;-47
2022/12/18 00:50:38;;;;;;;93.75;33.10;;;;;;;;;;5094198;27;20040;-43
2022/12/18 00:53:04;;;;;;;89.13;31.80;;;;;;;;;;5093804;27;20062;-44
2022/12/18 00:55:30;;;;;;;91.82;34.30;;;;;;;;;;5094022;27;20059;-41
2022/12/18 00:57:56;;;;;;;89.07;33.50;;;;;;;;;;5092866;28;20055;-43
2022/12/18 01:00:22;;;;;;;94.88;35.78;;;;;;;;;;5093974;28;20043;-45
2022/12/18 01:02:49;;;;;;;82.38;29.83;;;;;;;;;;5092981;28;20039;-43
2022/12/18 01:05:16;;;;;;;97.45;34.90;;;;;;;;;;5093904;28;20039;-41
2022/12/18 01:07:42;;;;;;;94.90;33.25;;;;;;;;;;5095205;27;20073;-42
2022/12/18 01:10:09;;;;;;;103.45;35.67;;;;;;;;;;5095649;28;20070;-43
2022/12/18 01:12:35;;;;;;;83.35;31.60;;;;;;;;;;5093935;27;20043;-44
2022/12/18 01:15:02;;;;;;;93.65;32.30;;;;;;;;;;5093579;27;20134;-47
2022/12/18 01:17:28;;;;;;;102.07;35.75;;;;;;;;;;5093950;28;20181;-42
2022/12/18 01:19:54;;;;;;;97.60;34.72;;;;;;;;;;5094551;28;20104;-43
2022/12/18 01:22:20;;;;;;;88.28;31.10;;;;;;;;;;5094267;27;20487;-46
2022/12/18 01:24:46;;;;;;;96.20;33.70;;;;;;;;;;5093774;27;20063;-46
2022/12/18 01:27:12;;;;;;;96.65;33.85;;;;;;;;;;5093077;28;20035;-41
2022/12/18 01:29:38;;;;;;;95.50;37.03;;;;;;;;;;5095030;28;20050;-44
2022/12/18 01:32:04;;;;;;;86.18;31.05;;;;;;;;;;5093626;27;20042;-43
2022/12/18 01:34:31;;;;;;;97.07;36.63;;;;;;;;;;5091476;28;20048;-45
2022/12/18 01:36:57;;;;;;;100.60;34.05;;;;;;;;;;5092366;27;20040;-43
2022/12/18 01:39:23;;;;;;;87.78;31.23;;;;;;;;;;5093705;28;20062;-41
2022/12/18 01:42:01;;;;;;;95.60;33.97;;;;;;;;;;5092382;27;20065;-45
2022/12/18 01:44:46;;;;;;;92.82;34.33;;;;;;;;;;5093091;27;20051;-44
2022/12/18 01:47:20;;;;;;;91.03;32.08;;;;;;;;;;5093353;28;20588;-44
2022/12/18 01:49:46;;;;;;;103.75;34.47;;;;;;;;;;5093391;28;20052;-45
2022/12/18 01:52:13;;;;;;;90.93;34.05;;;;;;;;;;5091809;28;20082;-46
2022/12/18 01:54:39;;;;;;;88.45;32.90;;;;;;;;;;5092310;28;20711;-47
2022/12/18 01:57:05;;;;;;;82.13;31.77;;;;;;;;;;5091772;28;20446;-46
2022/12/18 01:59:31;;;;;;;89.45;32.67;;;;;;;;;;5092754;28;20269;-44
2022/12/18 02:01:58;;;;;;;91.88;33.28;;;;;;;;;;5091867;28;20130;-46
2022/12/18 02:04:25;;;;;;;90.25;32.25;;;;;;;;;;5091792;28;20080;-46
2022/12/18 02:06:57;;;;;;;92.93;33.80;;;;;;;;;;5092150;28;20032;-43
2022/12/18 02:09:34;;;;;;;99.97;34.83;;;;;;;;;;5093274;28;20052;-42
2022/12/18 02:12:04;;;;;;;77.85;30.55;;;;;;;;;;5091776;28;20042;-42
2022/12/18 02:14:39;;;;;;;94.68;33.65;;;;;;;;;;5091658;28;20086;-42
2022/12/18 02:17:07;;;;;;;89.40;32.97;;;;;;;;;;5092490;28;20075;-42
2022/12/18 02:19:33;;;;;;;88.28;31.55;;;;;;;;;;5090368;28;20049;-42
2022/12/18 02:22:20;;;;;;;89.00;31.90;;;;;;;;;;5091393;28;20040;-42
2022/12/18 02:25:06;;;;;;;78.22;30.02;;;;;;;;;;5083723;28;20598;-41
2022/12/18 02:27:34;;;;;;;75.00;29.70;;;;;;;;;;5089503;27;20051;-42
2022/12/18 02:30:01;;;;;;;69.45;28.05;;;;;;;;;;5096572;27;20039;-42
2022/12/18 02:32:29;;;;;;;86.45;30.52;;;;;;;;;;5097365;27;20278;-42
2022/12/18 02:34:56;;;;;;;82.90;31.48;;;;;;;;;;5096652;27;20563;-43
2022/12/18 02:37:23;;;;;;;69.30;29.08;;;;;;;;;;5096799;27;20032;-43
2022/12/18 02:39:50;;;;;;;79.15;31.10;;;;;;;;;;5095343;27;20512;-42
2022/12/18 02:42:18;;;;;;;83.15;31.92;;;;;;;;;;5096145;27;20047;-41
2022/12/18 02:44:45;;;;;;;93.15;33.35;;;;;;;;;;5097087;27;20035;-43
2022/12/18 02:47:12;;;;;;;92.78;31.95;;;;;;;;;;5097719;27;20144;-43
2022/12/18 02:49:57;;;;;;;104.00;33.67;;;;;;;;;;5096643;27;20767;-46
2022/12/18 02:52:42;;;;;;;106.00;33.50;;;;;;;;;;5096443;27;20163;-46
2022/12/18 02:55:36;;;;;;;93.50;32.42;;;;;;;;;;5095975;27;20063;-45
2022/12/18 02:58:05;;;;;;;96.30;31.95;;;;;;;;;;5096357;27;20042;-42
2022/12/18 03:00:38;;;;;;;103.28;35.22;;;;;;;;;;5097159;28;20035;-42
2022/12/18 03:03:10;;;;;;;106.38;34.08;;;;;;;;;;5096216;27;20043;-45
2022/12/18 03:05:39;;;;;;;93.85;31.83;;;;;;;;;;5096110;28;20507;-41
2022/12/18 03:08:25;;;;;;;104.90;35.38;;;;;;;;;;5096519;27;20039;-42
2022/12/18 03:10:58;;;;;;;98.82;36.00;;;;;;;;;;5097201;28;20039;-41
2022/12/18 03:13:28;;;;;;;107.32;35.75;;;;;;;;;;5096466;28;20055;-44
2022/12/18 03:15:55;;;;;;;108.72;36.00;;;;;;;;;;5095921;27;20039;-42
2022/12/18 03:18:28;;;;;;;108.30;35.63;;;;;;;;;;5095974;27;20043;-41
2022/12/18 03:20:56;;;;;;;100.10;37.35;;;;;;;;;;5095960;27;20445;-46
2022/12/18 03:23:24;;;;;;;95.90;36.28;;;;;;;;;;5095895;27;20158;-42
2022/12/18 03:25:52;;;;;;;94.38;34.92;;;;;;;;;;5096014;27;20043;-43
2022/12/18 03:28:21;;;;;;;94.50;32.72;;;;;;;;;;5095270;27;20042;-42
2022/12/18 03:30:49;;;;;;;88.00;34.72;;;;;;;;;;5094649;28;20044;-42
2022/12/18 03:33:19;;;;;;;83.40;32.72;;;;;;;;;;5094678;28;20782;-41
2022/12/18 03:35:45;;;;;;;85.25;33.28;;;;;;;;;;5094594;28;20452;-44
2022/12/18 03:38:12;;;;;;;88.43;34.80;;;;;;;;;;5095277;27;20048;-41
2022/12/18 03:40:53;;;;;;;86.07;32.85;;;;;;;;;;5096340;28;20040;-41
2022/12/18 03:43:19;;;;;;;89.43;34.57;;;;;;;;;;5094565;27;20113;-42
2022/12/18 03:45:52;;;;;;;81.72;32.42;;;;;;;;;;5095081;27;20324;-41
2022/12/18 03:48:29;;;;;;;78.90;32.97;;;;;;;;;;5094678;27;20644;-42
2022/12/18 03:51:05;;;;;;;83.85;33.97;;;;;;;;;;5094776;27;20113;-42
2022/12/18 03:53:47;;;;;;;79.70;32.33;;;;;;;;;;5095147;28;20078;-41
2022/12/18 03:56:14;;;;;;;78.63;30.40;;;;;;;;;;5094882;27;20039;-44
2022/12/18 03:58:41;;;;;;;75.90;32.38;;;;;;;;;;5094264;28;20149;-42
2022/12/18 04:01:07;;;;;;;80.82;32.75;;;;;;;;;;5095795;27;20047;-44
2022/12/18 04:03:34;;;;;;;81.80;33.38;;;;;;;;;;5097279;27;20047;-46
2022/12/18 04:06:01;;;;;;;82.63;31.30;;;;;;;;;;5096022;27;20135;-43
2022/12/18 04:08:27;;;;;;;71.53;31.48;;;;;;;;;;5096589;27;20047;-45
2022/12/18 04:10:53;;;;;;;76.97;32.92;;;;;;;;;;5096187;27;20054;-46
2022/12/18 04:13:29;;;;;;;77.05;30.15;;;;;;;;;;5095897;28;21820;-44
2022/12/18 04:15:55;;;;;;;74.43;30.02;;;;;;;;;;5095959;27;20082;-45
2022/12/18 04:18:21;;;;;;;79.22;32.60;;;;;;;;;;5095377;27;20052;-44
2022/12/18 04:20:47;;;;;;;68.63;29.98;;;;;;;;;;5096057;28;20096;-44
2022/12/18 04:23:13;;;;;;;71.05;29.33;;;;;;;;;;5095108;27;20032;-42
2022/12/18 04:25:39;;;;;;;70.72;30.17;;;;;;;;;;5095948;27;20384;-45
2022/12/18 04:28:06;;;;;;;71.60;29.17;;;;;;;;;;5094950;27;20134;-46
2022/12/18 04:30:32;;;;;;;71.40;29.30;;;;;;;;;;5095359;27;20520;-46
2022/12/18 04:32:58;;;;;;;62.13;27.75;;;;;;;;;;5093923;27;20044;-46
2022/12/18 04:35:24;;;;;;;58.75;26.23;;;;;;;;;;5094306;27;20042;-41
2022/12/18 04:37:50;;;;;;;67.15;29.52;;;;;;;;;;5093111;27;20492;-43
2022/12/18 04:40:17;;;;;;;70.97;28.73;;;;;;;;;;5094705;27;20047;-43
2022/12/18 04:42:43;;;;;;;65.00;27.70;;;;;;;;;;5094602;28;20043;-41
2022/12/18 04:45:09;;;;;;;62.80;27.83;;;;;;;;;;5093436;27;20043;-42
2022/12/18 04:47:35;;;;;;;63.50;25.73;;;;;;;;;;5092973;27;20500;-41
2022/12/18 04:50:02;;;;;;;67.72;27.90;;;;;;;;;;5092195;28;20048;-43
2022/12/18 04:52:28;;;;;;;57.30;27.77;;;;;;;;;;5093922;27;20058;-44
2022/12/18 04:54:54;;;;;;;61.72;26.27;;;;;;;;;;5094251;27;20488;-46
2022/12/18 04:57:20;;;;;;;58.75;26.63;;;;;;;;;;5093825;27;20057;-43
2022/12/18 04:59:46;;;;;;;62.70;27.15;;;;;;;;;;5093895;27;20123;-41
2022/12/18 05:02:12;;;;;;;61.70;25.27;;;;;;;;;;5092854;27;20044;-42
2022/12/18 05:04:39;;;;;;;61.45;25.75;;;;;;;;;;5092739;27;20128;-42
2022/12/18 05:07:05;;;;;;;64.75;26.27;;;;;;;;;;5094085;27;20071;-45
2022/12/18 05:09:31;;;;;;;59.75;24.88;;;;;;;;;;5092979;28;20043;-43
2022/12/18 05:11:57;;;;;;;59.70;25.98;;;;;;;;;;5093721;27;20040;-42
2022/12/18 05:14:23;;;;;;;65.95;25.35;;;;;;;;;;5092185;28;20373;-42
2022/12/18 05:16:49;;;;;;;64.38;28.00;;;;;;;;;;5091842;28;20055;-41
2022/12/18 05:19:15;;;;;;;64.63;26.98;;;;;;;;;;5093036;27;20182;-41
2022/12/18 05:21:42;;;;;;;66.50;25.60;;;;;;;;;;5094095;27;20216;-43
2022/12/18 05:24:08;;;;;;;61.85;26.25;;;;;;;;;;5094557;27;20040;-42
2022/12/18 05:26:34;;;;;;;63.95;27.52;;;;;;;;;;5095719;28;20042;-43
2022/12/18 05:29:00;;;;;;;62.67;26.05;;;;;;;;;;5095033;27;20146;-43
2022/12/18 05:31:26;;;;;;;62.00;26.13;;;;;;;;;;5095036;28;20066;-42
2022/12/18 05:33:52;;;;;;;76.43;28.13;;;;;;;;;;5094534;28;20156;-42
2022/12/18 05:36:18;;;;;;;60.33;26.83;;;;;;;;;;5095292;28;20043;-42
2022/12/18 05:38:44;;;;;;;59.95;25.25;;;;;;;;;;5094818;27;20031;-42
2022/12/18 05:41:10;;;;;;;64.63;26.98;;;;;;;;;;5094089;27;20110;-43
2022/12/18 05:43:37;;;;;;;63.58;24.70;;;;;;;;;;5092404;28;20046;-46
2022/12/18 05:46:13;;;;;;;63.28;24.40;;;;;;;;;;5092624;28;20066;-46
2022/12/18 05:48:39;;;;;;;64.40;26.33;;;;;;;;;;5092755;28;20551;-42
2022/12/18 05:51:06;;;;;;;59.75;24.27;;;;;;;;;;5092703;28;20047;-40
2022/12/18 05:53:33;;;;;;;56.60;23.45;;;;;;;;;;5093319;28;20131;-43
2022/12/18 05:56:03;;;;;;;55.03;25.50;;;;;;;;;;5093275;28;20764;-41
2022/12/18 05:58:29;;;;;;;59.35;23.83;;;;;;;;;;5093881;28;20108;-42
2022/12/18 06:00:55;;;;;;;61.90;23.90;;;;;;;;;;5093470;28;20039;-43
2022/12/18 06:03:21;;;;;;;67.07;23.52;;;;;;;;;;5092753;28;20050;-43
2022/12/18 06:05:47;;;;;;;57.75;25.77;;;;;;;;;;5092835;28;20082;-43
2022/12/18 06:08:14;;;;;;;56.60;24.70;;;;;;;;;;5093012;28;20043;-42
2022/12/18 06:10:40;;;;;;;57.05;22.20;;;;;;;;;;5093774;28;20050;-44
2022/12/18 06:13:07;;;;;;;58.63;25.05;;;;;;;;;;5092887;28;20044;-44
2022/12/18 06:15:33;;;;;;;61.90;23.52;;;;;;;;;;5093692;28;20492;-44
2022/12/18 06:18:00;;;;;;;60.58;25.30;;;;;;;;;;5092470;28;20158;-43
2022/12/18 06:20:26;;;;;;;60.70;24.35;;;;;;;;;;5093439;28;20202;-43
2022/12/18 06:22:52;;;;;;;66.05;24.23;;;;;;;;;;5093210;28;20064;-47
2022/12/18 06:25:18;;;;;;;55.40;22.75;;;;;;;;;;5093033;28;20685;-44
2022/12/18 06:27:45;;;;;;;54.58;23.05;;;;;;;;;;5092299;28;20055;-42
2022/12/18 06:30:12;;;;;;;58.63;23.50;;;;;;;;;;5092887;28;20044;-47
2022/12/18 06:32:38;;;;;;;60.58;22.70;;;;;;;;;;5092707;28;20737;-45
2022/12/18 06:35:04;;;;;;;50.47;21.80;;;;;;;;;;5094049;28;20584;-45
2022/12/18 06:37:31;;;;;;;61.20;23.58;;;;;;;;;;5093685;28;20131;-45
2022/12/18 06:39:57;;;;;;;57.05;22.88;;;;;;;;;;5093815;28;20092;-46
2022/12/18 06:42:24;;;;;;;56.83;22.88;;;;;;;;;;5094656;28;20042;-46
2022/12/18 06:44:50;;;;;;;55.58;23.52;;;;;;;;;;5094556;28;20437;-45
2022/12/18 06:47:16;;;;;;;64.50;23.60;;;;;;;;;;5094619;28;20318;-48
2022/12/18 06:49:42;;;;;;;54.35;22.02;;;;;;;;;;5093559;28;20055;-45
2022/12/18 06:52:08;;;;;;;59.05;22.55;;;;;;;;;;5093192;28;20159;-45
2022/12/18 06:54:34;;;;;;;56.97;24.27;;;;;;;;;;5093557;28;20564;-45
2022/12/18 06:57:00;;;;;;;57.85;22.42;;;;;;;;;;5093225;28;20061;-45
2022/12/18 06:59:27;;;;;;;50.55;22.08;;;;;;;;;;5094361;28;20151;-47
2022/12/18 07:01:53;;;;;;;55.72;22.80;;;;;;;;;;5092791;28;20050;-44
2022/12/18 07:04:19;;;;;;;57.88;21.92;;;;;;;;;;5092187;28;20186;-43
2022/12/18 07:06:46;;;;;;;58.17;23.58;;;;;;;;;;5092073;28;20134;-42
2022/12/18 07:09:12;;;;;;;51.45;21.85;;;;;;;;;;5093150;28;20247;-42
2022/12/18 07:11:38;;;;;;;49.55;22.65;;;;;;;;;;5094267;27;20100;-43
2022/12/18 07:14:04;;;;;;;52.83;21.75;;;;;;;;;;5094954;27;20100;-42
2022/12/18 07:16:30;;;;;;;48.90;20.88;;;;;;;;;;5095833;28;20063;-42
2022/12/18 07:18:56;;;;;;;53.20;21.98;;;;;;;;;;5095427;27;25058;-44
2022/12/18 07:21:23;;;;;;;54.30;22.80;;;;;;;;;;5095992;27;20561;-43
2022/12/18 07:23:49;;;;;;;40.50;20.55;;;;;;;;;;5093500;27;20672;-42
2022/12/18 07:26:17;;;;;;;49.40;21.75;;;;;;;;;;5095085;27;20122;-43
2022/12/18 07:28:43;;;;;;;46.45;20.52;;;;;;;;;;5094546;28;20047;-44
2022/12/18 07:31:14;;;;;;;46.88;21.23;;;;;;;;;;5094269;27;20134;-42
2022/12/18 07:33:40;;;;;;;43.42;19.60;;;;;;;;;;5096152;28;20051;-43
2022/12/18 07:36:07;;;;;;;42.42;19.73;;;;;;;;;;5095720;27;20120;-43
2022/12/18 07:38:34;;;;;;;43.90;19.52;;;;;;;;;;5094251;27;20047;-43
2022/12/18 07:41:05;;;;;;;44.50;18.40;;;;;;;;;;5095425;27;20130;-42
2022/12/18 07:43:31;;;;;;;42.70;21.13;;;;;;;;;;5095388;27;20050;-43
2022/12/18 07:45:57;;;;;;;46.88;20.02;;;;;;;;;;5095790;27;20047;-43
2022/12/18 07:48:23;;;;;;;36.40;18.75;;;;;;;;;;5096644;27;20472;-42
2022/12/18 07:50:49;;;;;;;42.85;19.40;;;;;;;;;;5097354;27;20267;-41
2022/12/18 07:53:15;;;;;;;38.90;17.88;;;;;;;;;;5096286;27;20504;-42
2022/12/18 07:55:42;;;;;;;37.15;17.48;;;;;;;;;;5096264;27;20036;-41
2022/12/18 07:58:08;;;;;;;41.80;18.17;;;;;;;;;;5096177;27;20074;-42
2022/12/18 08:00:34;;;;;;;40.38;17.75;;;;;;;;;;5096435;27;20039;-42
2022/12/18 08:03:01;;;;;;;39.53;19.05;;;;;;;;;;5096000;27;20036;-43
2022/12/18 08:05:27;;;;;;;42.60;18.15;;;;;;;;;;5095961;28;20040;-43
2022/12/18 08:07:54;;;;;;;35.22;17.80;;;;;;;;;;5093507;27;20411;-43
2022/12/18 08:10:20;;;;;;;35.13;16.95;;;;;;;;;;5094607;28;20201;-44
2022/12/18 08:12:49;;;;;;;36.90;17.38;;;;;;;;;;5095062;27;20097;-45
2022/12/18 08:15:15;;;;;;;37.08;16.90;;;;;;;;;;5094165;28;20153;-43
2022/12/18 08:17:41;;;;;;;34.85;17.15;;;;;;;;;;5094758;27;20044;-41
2022/12/18 08:20:08;;;;;;;36.22;17.63;;;;;;;;;;5093847;27;20316;-42
2022/12/18 08:22:35;;;;;;;36.83;18.63;;;;;;;;;;5094723;27;20047;-43
2022/12/18 08:25:01;;;;;;;37.63;19.33;;;;;;;;;;5094125;28;20436;-43
2022/12/18 08:27:27;;;;;;;35.58;17.25;;;;;;;;;;5094192;27;20058;-42
2022/12/18 08:29:53;;;;;;;36.08;17.15;;;;;;;;;;5093577;27;20342;-42
2022/12/18 08:32:19;;;;;;;34.38;17.10;;;;;;;;;;5092832;27;20250;-42
2022/12/18 08:34:45;;;;;;;33.22;17.17;;;;;;;;;;5094450;27;20043;-42
2022/12/18 08:37:12;;;;;;;31.73;16.20;;;;;;;;;;5093716;28;20127;-43
2022/12/18 08:39:38;;;;;;;31.55;15.63;;;;;;;;;;5093068;28;20040;-41
2022/12/18 08:44:49;;;;;;;33.58;17.25;;;;;;;;;;5094187;27;20036;-43
2022/12/18 08:47:15;;;;;;;34.97;16.85;;;;;;;;;;5093842;27;20054;-46
2022/12/18 08:49:41;;;;;;;29.70;15.93;;;;;;;;;;5093764;27;20672;-42
2022/12/18 08:52:07;;;;;;;33.72;17.52;;;;;;;;;;5094632;27;20051;-42
2022/12/18 08:54:33;;;;;;;32.22;16.45;;;;;;;;;;5093271;27;20050;-43
2022/12/18 08:56:59;;;;;;;30.95;16.67;;;;;;;;;;5094987;28;20039;-43
2022/12/18 08:59:26;;;;;;;31.42;16.38;;;;;;;;;;5093777;27;20040;-43
2022/12/18 09:01:54;;;;;;;31.67;17.05;;;;;;;;;;5094612;27;20124;-43
2022/12/18 09:04:20;;;;;;;30.58;15.93;;;;;;;;;;5094290;28;20062;-43
2022/12/18 09:06:46;;;;;;;27.75;15.25;;;;;;;;;;5095801;27;20411;-44
2022/12/18 09:09:12;;;;;;;27.08;15.57;;;;;;;;;;5093639;27;20082;-47
2022/12/18 09:11:38;;;;;;;27.10;15.95;;;;;;;;;;5095482;27;20081;-42
2022/12/18 09:14:04;;;;;;;30.50;16.20;;;;;;;;;;5094694;27;20031;-45
2022/12/18 09:16:31;;;;;;;30.40;15.75;;;;;;;;;;5095009;28;20061;-46
2022/12/18 09:19:01;;;;;;;30.00;16.25;;;;;;;;;;5093147;28;20888;-45
2022/12/18 09:21:28;;;;;;;23.50;14.38;;;;;;;;;;5092557;28;20142;-45
2022/12/18 09:23:55;;;;;;;31.52;16.02;;;;;;;;;;5092635;28;20042;-45
2022/12/18 09:26:22;;;;;;;28.88;14.15;;;;;;;;;;5092083;28;20066;-46
2022/12/18 09:28:48;;;;;;;26.10;14.85;;;;;;;;;;5093077;27;20396;-46
2022/12/18 09:31:15;;;;;;;25.70;13.32;;;;;;;;;;5093181;28;20101;-46
2022/12/18 09:33:41;;;;;;;26.38;13.85;;;;;;;;;;5093552;28;20271;-41
2022/12/18 09:36:08;;;;;;;26.13;14.73;;;;;;;;;;5091889;27;20044;-42
2022/12/18 09:38:34;;;;;;;27.05;14.48;;;;;;;;;;5092207;28;20159;-43
2022/12/18 09:41:06;;;;;;;22.75;13.68;;;;;;;;;;5092327;28;20134;-43
2022/12/18 09:43:35;;;;;;;24.23;14.27;;;;;;;;;;5092343;28;20051;-44
2022/12/18 09:46:10;;;;;;;22.65;12.63;;;;;;;;;;5092656;27;20054;-42
2022/12/18 09:48:40;;;;;;;23.38;12.90;;;;;;;;;;5091736;28;20036;-43
2022/12/18 09:51:17;;;;;;;25.77;13.90;;;;;;;;;;5091540;27;20055;-41
2022/12/18 09:53:46;;;;;;;25.33;12.82;;;;;;;;;;5091914;28;20588;-42
2022/12/18 09:56:22;;;;;;;24.25;13.52;;;;;;;;;;5092291;28;20043;-43
2022/12/18 09:58:54;;;;;;;23.50;12.73;;;;;;;;;;5090820;28;20044;-43
2022/12/18 10:01:22;;;;;;;21.88;12.65;;;;;;;;;;5091374;28;20043;-42
2022/12/18 10:03:48;;;;;;;22.30;13.23;;;;;;;;;;5092955;28;20075;-42
2022/12/18 10:06:14;;;;;;;22.67;12.50;;;;;;;;;;5091772;28;20125;-42
2022/12/18 10:08:46;;;;;;;22.60;13.38;;;;;;;;;;5092985;28;20209;-42
2022/12/18 10:11:30;;;;;;;20.42;12.32;;;;;;;;;;5093461;28;20040;-41
2022/12/18 10:14:31;;;;;;;19.08;10.65;;;;;;;;;;5094807;28;20091;-42
2022/12/18 10:17:03;;;;;;;21.40;11.80;;;;;;;;;;5034071;28;20437;-42
2022/12/18 10:19:38;;;;;;;19.35;11.52;;;;;;;;;;5084459;28;20061;-42
2022/12/18 10:22:11;;;;;;;20.83;12.40;;;;;;;;;;5094437;28;20118;-42
2022/12/18 10:24:46;;;;;;;21.13;11.07;;;;;;;;;;5094497;28;20536;-41
2022/12/18 10:27:16;;;;;;;20.63;10.93;;;;;;;;;;5094189;28;20066;-41
2022/12/18 10:29:44;;;;;;;18.23;10.93;;;;;;;;;;5094481;28;20081;-41
2022/12/18 10:32:15;;;;;;;17.38;10.05;;;;;;;;;;5092492;28;20044;-44
2022/12/18 10:34:41;;;;;;;18.48;9.98;;;;;;;;;;5093840;28;20511;-41
2022/12/18 10:37:12;;;;;;;20.35;11.27;;;;;;;;;;5093038;28;20483;-44
2022/12/18 10:39:38;;;;;;;19.47;10.87;;;;;;;;;;5092607;28;20058;-42
2022/12/18 10:42:11;;;;;;;19.77;11.07;;;;;;;;;;5093767;28;20368;-42
2022/12/18 10:44:37;;;;;;;20.75;10.52;;;;;;;;;;5092551;28;22192;-44
2022/12/18 10:47:05;;;;;;;19.88;10.70;;;;;;;;;;5095269;28;20044;-41
2022/12/18 10:49:32;;;;;;;16.80;10.43;;;;;;;;;;5096670;28;20851;-43
2022/12/18 10:52:14;;;;;;;18.08;10.40;;;;;;;;;;5096946;27;20039;-41
2022/12/18 10:54:41;;;;;;;20.23;10.02;;;;;;;;;;5096107;27;20035;-42
2022/12/18 10:57:18;;;;;;;17.95;10.57;;;;;;;;;;5096287;27;20419;-42
2022/12/18 10:59:54;;;;;;;17.67;10.38;;;;;;;;;;5096059;28;20444;-45
2022/12/18 11:02:29;;;;;;;20.52;10.07;;;;;;;;;;5128194;27;20039;-43
2022/12/18 11:04:55;;;;;;;20.63;10.93;;;;;;;;;;5097321;27;20078;-42
2022/12/18 11:07:21;;;;;;;16.23;10.27;;;;;;;;;;5095544;27;21011;-43
2022/12/18 11:10:05;;;;;;;17.58;10.23;;;;;;;;;;5096466;28;20061;-43
2022/12/18 11:12:32;;;;;;;16.60;9.93;;;;;;;;;;5096538;28;20089;-43
2022/12/18 11:14:59;;;;;;;16.23;8.88;;;;;;;;;;5096109;27;20403;-43
2022/12/18 11:17:30;;;;;;;18.08;9.68;;;;;;;;;;5095455;27;20043;-44
2022/12/18 11:20:00;;;;;;;18.67;9.98;;;;;;;;;;5095904;27;20043;-44
2022/12/18 11:22:30;;;;;;;16.27;8.77;;;;;;;;;;5095082;28;20549;-44
2022/12/18 11:25:05;;;;;;;15.93;9.32;;;;;;;;;;5095413;27;20404;-43
2022/12/18 11:27:31;;;;;;;15.38;7.80;;;;;;;;;;5095487;27;20373;-42
2022/12/18 11:30:30;;;;;;;13.82;8.07;;;;;;;;;;5094276;27;21018;-46
2022/12/18 11:32:56;;;;;;;14.60;7.80;;;;;;;;;;5072184;28;20522;-41
2022/12/18 11:35:25;;;;;;;13.55;7.85;;;;;;;;;;5095429;27;20220;-43
2022/12/18 11:37:57;;;;;;;14.60;7.90;;;;;;;;;;5095828;27;20171;-45
2022/12/18 11:40:33;;;;;;;14.30;7.50;;;;;;;;;;5096019;27;20408;-43
2022/12/18 11:43:02;;;;;;;15.82;7.65;;;;;;;;;;5097195;28;20044;-45
2022/12/18 11:45:30;;;;;;;13.40;7.65;;;;;;;;;;5095988;27;20870;-44
2022/12/18 11:48:18;;;;;;;12.55;7.50;;;;;;;;;;5097619;27;20081;-44
2022/12/18 11:50:44;;;;;;;14.13;7.25;;;;;;;;;;5097249;27;20051;-45
2022/12/18 11:53:11;;;;;;;11.52;6.28;;;;;;;;;;5096454;27;20337;-44
2022/12/18 11:55:40;;;;;;;13.55;7.47;;;;;;;;;;5096238;27;20138;-45
2022/12/18 11:58:18;;;;;;;11.95;6.75;;;;;;;;;;5095025;27;20451;-42
2022/12/18 12:00:50;;;;;;;11.38;6.15;;;;;;;;;;5096412;27;20047;-42
2022/12/18 12:03:16;;;;;;;11.02;6.93;;;;;;;;;;5096489;27;20120;-41
2022/12/18 12:05:45;;;;;;;11.77;6.22;;;;;;;;;;5097027;27;20403;-42
2022/12/18 12:08:17;;;;;;;11.82;6.68;;;;;;;;;;5096517;27;20740;-42
2022/12/18 12:10:51;;;;;;;13.57;7.30;;;;;;;;;;5094040;28;20043;-44
2022/12/18 12:13:36;;;;;;;11.68;6.85;;;;;;;;;;5095595;27;20085;-42
2022/12/18 12:16:05;;;;;;;10.75;6.85;;;;;;;;;;5094027;28;20450;-43
2022/12/18 12:18:46;;;;;;;12.23;7.40;;;;;;;;;;5094941;27;20059;-42
2022/12/18 12:21:15;;;;;;;13.50;6.70;;;;;;;;;;5094239;27;20574;-42
2022/12/18 12:24:00;;;;;;;12.38;6.70;;;;;;;;;;5094949;27;20032;-43
2022/12/18 12:26:26;;;;;;;10.98;6.68;;;;;;;;;;5094126;27;20059;-42
2022/12/18 12:29:11;;;;;;;12.88;7.60;;;;;;;;;;5094965;27;20035;-42
2022/12/18 12:32:05;;;;;;;14.73;7.57;;;-1.80;99.90;;;;;;5092965;28;20434;-42
2022/12/18 12:34:49;;;;;;;13.18;6.68;;;;;;;;;;5094510;27;20040;-42
2022/12/18 12:37:18;;;;;;;11.75;6.70;;;;;;;;;;5095647;27;20039;-43
2022/12/18 12:39:46;;;;;;;10.95;6.90;;;;;;;;;;5095407;28;20028;-41
2022/12/18 12:45:02;;;;;;;10.13;5.68;;;;;;;;;;5094158;27;20067;-42
2022/12/18 12:47:32;;;;;;;12.70;6.63;;;;;;;;;;5093801;27;20073;-43
2022/12/18 12:50:04;;;;;;;11.70;6.55;;;;;;;;;;5093526;28;20055;-41
2022/12/18 12:52:36;;;;;;;10.47;5.90;;;;;;;;;;5093583;28;20537;-41
2022/12/18 12:55:04;;;;;;;10.13;5.65;;;;;;;;;;5093607;27;20286;-43
2022/12/18 12:57:33;;;;;;;12.65;5.50;;;;;;;;;;5094430;28;20051;-44
2022/12/18 13:00:19;;;;;;;10.18;5.93;;;;;;;;;;5093830;27;20430;-44
2022/12/18 13:02:51;;;;;;;11.52;6.35;;;;;;;;;;5093293;28;20036;-44
2022/12/18 13:05:36;;;;;;;9.98;5.88;;;;;;;;;;5093754;27;20074;-44
2022/12/18 13:08:06;;;;;;;10.93;6.25;;;;;;;;;;5094409;27;20035;-41
2022/12/18 13:10:34;;;;;;;10.10;6.18;;;;;;;;;;5093608;28;20054;-44
2022/12/18 13:13:09;;;;;;;11.52;5.70;;;;;;;;;;5095001;28;20044;-44
2022/12/18 13:15:39;;;;;;;10.60;6.22;;;;;;;;;;5093699;27;21090;-42
2022/12/18 13:18:08;;;;;;;9.68;5.85;;;;;;;;;;5093085;28;20051;-42
2022/12/18 13:20:40;;;;;;;10.57;5.60;;;;;;;;;;5095734;27;20047;-42
2022/12/18 13:23:25;;;;;;;12.35;6.15;;;;;;;;;;5094067;27;20479;-44
2022/12/18 13:25:54;;;;;;;10.98;5.75;;;;;;;;;;5091670;28;20043;-42
2022/12/18 13:28:43;;;;;;;12.50;7.00;;;;;;;;;;5091907;28;20074;-42
2022/12/18 13:31:09;;;;;;;13.05;6.50;;;;;;;;;;5092813;27;20098;-42
2022/12/18 13:33:35;;;;;;;12.32;6.28;;;;;;;;;;5093284;27;20381;-42
2022/12/18 13:36:31;;;;;;;12.68;6.45;;;;;;;;;;5093918;27;20036;-43
2022/12/18 13:39:10;;;;;;;11.45;5.85;;;;;;;;;;5083887;27;20051;-43
2022/12/18 13:41:37;;;;;;;11.18;6.38;;;;;;;;;;5092936;27;20550;-42
2022/12/18 13:44:21;;;;;;;11.32;6.00;;;;;;;;;;5092977;27;20040;-42
2022/12/18 13:46:48;;;;;;;9.93;5.38;;;;;;;;;;5092409;28;20062;-41
2022/12/18 13:49:14;;;;;;;10.40;5.70;;;;;;;;;;5091784;28;20042;-43
2022/12/18 13:51:44;;;;;;;8.63;5.43;;;;;;;;;;5092623;28;20055;-43
2022/12/18 13:54:31;;;;;;;9.05;5.07;;;;;;;;;;5091777;28;20084;-43
2022/12/18 13:56:57;;;;;;;9.55;5.20;;;;;;;;;;5092599;28;20047;-41
2022/12/18 13:59:24;;;;;;;11.63;6.65;;;;;;;;;;5091449;28;20047;-43
2022/12/18 14:01:53;;;;;;;9.57;4.85;;;;;;;;;;5091727;28;20047;-44
2022/12/18 14:04:19;;;;;;;10.70;5.50;;;;;;;;;;5091456;28;20031;-44
2022/12/18 14:06:46;;;;;;;13.32;5.30;;;;;;;;;;5091951;28;20087;-42
2022/12/18 14:09:14;;;;;;;12.10;6.18;;;;;;;;;;5092636;28;20046;-42
2022/12/18 14:11:41;;;;;;;9.35;5.50;;;;;;;;;;5093316;27;20047;-42
2022/12/18 14:14:07;;;;;;;9.40;5.13;;;;;;;;;;5092529;28;20050;-43
2022/12/18 14:16:34;;;;;;;8.60;5.13;;;;;;;;;;5093210;28;20044;-43
2022/12/18 14:19:00;;;;;;;10.80;5.20;;;;;;;;;;5093216;28;20035;-42
2022/12/18 14:21:28;;;;;;;13.85;6.20;;;;;;;;;;5094374;28;20074;-44
2022/12/18 14:24:04;;;;;;;8.50;4.68;;;;;;;;;;5096916;27;20523;-45
2022/12/18 14:26:32;;;;;;;9.65;5.32;;;;;;;;;;5098607;27;20573;-44
2022/12/18 14:29:03;;;;;;;9.70;5.47;;;;;;;;;;5097560;27;20047;-44
2022/12/18 14:31:30;;;;;;;12.05;4.97;;;;;;;;;;5096962;27;20122;-42
2022/12/18 14:33:57;;;;;;;12.90;5.78;;;;;;;;;;5096796;27;20043;-45
2022/12/18 14:36:29;;;;;;;10.45;5.50;;;;;;;;;;5096468;27;20677;-44